Time;durP1;ratioP1;P1;durP2;ratioP2;P2;SDS_P1;SDS_P2;PMS_P1;PMS_P2;Temp;Humidity;BMP_temperature;BMP_pressure;BME280_temperature;BME280_humidity;BME280_pressure;Samples;Min_cycle;Max_cycle;Signal;HPM_P1;HPM_P2
2022/06/09 00:01:59;;;;;;;8.90;6.27;;;;;;;15.63;84.00;100716.09;5114954;28;20130;-61
2022/06/09 00:04:39;;;;;;;7.00;6.30;;;;;;;15.66;83.94;100720.25;5113821;28;20384;-62
2022/06/09 00:07:10;;;;;;;8.70;6.10;;;;;;;15.64;83.26;100716.94;5114921;28;20478;-60
2022/06/09 00:09:42;;;;;;;9.13;6.83;;;;;;;15.65;83.54;100718.59;5113496;28;20073;-64
2022/06/09 00:12:08;;;;;;;7.63;6.27;;;;;;;15.69;84.22;100731.41;5114623;28;20048;-62
2022/06/09 00:14:36;;;;;;;9.83;7.57;;;;;;;15.68;83.53;100723.56;5114845;28;20031;-66
2022/06/09 00:17:02;;;;;;;10.82;6.97;;;;;;;15.66;83.29;100723.75;5114900;28;20036;-64
2022/06/09 00:19:29;;;;;;;8.90;6.37;;;;;;;15.65;84.11;100719.41;5114541;28;20055;-61
2022/06/09 00:21:55;;;;;;;8.05;7.22;;;;;;;15.65;84.13;100721.25;5114742;28;20090;-62
2022/06/09 00:24:21;;;;;;;7.77;7.07;;;;;;;15.69;84.26;100725.22;5114555;28;20043;-63
2022/06/09 00:26:47;;;;;;;7.37;6.60;;;;;;;15.69;84.39;100726.03;5114338;28;20027;-62
2022/06/09 00:29:13;;;;;;;8.53;7.63;;;;;;;15.55;84.20;100713.50;5114985;28;20401;-61
2022/06/09 00:31:38;;;;;;;8.40;7.43;;;;;;;15.65;84.27;100726.63;5115078;28;20061;-65
2022/06/09 00:34:04;;;;;;;12.00;7.60;;;;;;;15.61;83.95;100726.19;5114334;28;20031;-62
2022/06/09 00:36:30;;;;;;;9.23;6.73;;;;;;;15.59;83.78;100722.03;5114364;28;20031;-62
2022/06/09 00:38:57;;;;;;;7.67;5.70;;;;;;;15.46;82.20;100715.53;5114206;28;20028;-61
2022/06/09 00:41:24;;;;;;;8.25;6.60;;;;;;;15.48;83.73;100724.22;5114079;28;20384;-63
2022/06/09 00:43:50;;;;;;;6.83;5.73;;;;;;;15.49;84.56;100708.94;5113988;28;20039;-61
2022/06/09 00:46:21;;;;;;;6.70;6.03;;;;;;;15.63;83.75;100720.63;5114333;28;20044;-61
2022/06/09 00:49:01;;;;;;;7.27;6.20;;;;;;;15.68;84.54;100724.38;5114066;28;20031;-62
2022/06/09 00:51:46;;;;;;;6.80;5.93;;;;;;;15.71;84.73;100717.78;5114175;28;20399;-62
2022/06/09 00:54:29;;;;;;;9.13;6.03;;;;;;;15.67;84.31;100711.97;5113957;28;20080;-60
2022/06/09 00:57:05;;;;;;;8.03;5.67;;;;;;;15.75;83.62;100719.88;5114102;28;20031;-62
2022/06/09 00:59:32;;;;;;;7.80;7.00;;;;;;;15.69;83.37;100723.34;5116280;28;20042;-62
2022/06/09 01:02:00;;;;;;;9.83;7.83;;;;;;;15.68;83.39;100735.13;5117292;28;20047;-61
2022/06/09 01:04:28;;;;;;;10.20;7.60;;;;;;;15.67;83.75;100729.94;5113742;28;20077;-63
2022/06/09 01:06:58;;;;;;;8.48;7.65;;;;;;;15.56;83.48;100725.91;5114254;28;20075;-64
2022/06/09 01:09:26;;;;;;;12.10;10.80;;;;;;;15.59;84.30;100735.44;5113499;28;20569;-63
2022/06/09 01:11:54;;;;;;;18.92;14.77;;;;;;;15.52;84.50;100727.31;5113603;28;20458;-62
2022/06/09 01:14:22;;;;;;;12.20;10.63;;;;;;;15.38;85.60;100702.25;5113639;28;20036;-62
2022/06/09 01:17:06;;;;;;;11.80;10.23;;;;;;;15.48;86.19;100724.22;5113921;28;20035;-65
2022/06/09 01:20:17;;;;;;;13.13;9.03;;;;;;;15.40;86.62;100719.00;5113516;28;20051;-62
2022/06/09 01:22:45;;;;;;;13.40;9.03;;;;;;;15.32;86.75;100718.28;5113561;28;20050;-62
2022/06/09 01:25:29;;;;;;;11.57;9.60;;;;;;;15.32;87.78;100712.91;5113329;28;20040;-61
2022/06/09 01:28:18;;;;;;;11.77;10.33;;;;;;;15.32;88.06;100715.59;5113916;27;20043;-62
2022/06/09 01:30:47;;;;;;;10.87;9.43;;;;;;;15.32;87.44;100711.06;5113821;28;20060;-61
2022/06/09 01:33:40;;;;;;;10.70;9.65;;;;;;;15.35;88.15;100709.88;5114172;28;20058;-61
2022/06/09 01:36:16;;;;;;;10.13;9.03;;;;;;;15.30;87.61;100698.88;5113771;28;20046;-63
2022/06/09 01:38:53;;;;;;;13.37;9.60;;;;;;;15.26;87.98;100690.38;5113500;28;20039;-62
2022/06/09 01:41:20;;;;;;;10.87;9.87;;;;;;;15.28;87.85;100692.88;5113387;28;20043;-62
2022/06/09 01:43:48;;;;;;;12.20;10.07;;;;;;;15.33;89.00;100701.19;5113247;28;20031;-63
2022/06/09 01:46:34;;;;;;;14.90;10.55;;;;;;;15.40;89.63;100715.47;5112904;28;20036;-64
2022/06/09 01:49:22;;;;;;;14.23;11.33;;;;;;;15.37;89.85;100699.78;5113241;28;20498;-62
2022/06/09 01:51:51;;;;;;;12.65;10.75;;;;;;;15.38;89.33;100707.63;5112984;28;20186;-62
2022/06/09 01:54:22;;;;;;;12.90;11.33;;;;;;;15.40;89.37;100707.44;5112784;28;20446;-61
2022/06/09 01:56:59;;;;;;;15.93;10.93;;;;;;;15.39;89.59;100701.22;5112916;28;20187;-62
2022/06/09 01:59:30;;;;;;;14.23;10.60;;;;;;;15.43;89.58;100693.63;5112842;28;20032;-62
2022/06/09 02:02:03;;;;;;;11.73;10.63;;;;;;;15.40;89.12;100685.97;5113406;28;20495;-62
2022/06/09 02:04:43;;;;;;;17.63;11.07;;;;;;;15.45;89.25;100691.56;5112739;28;20051;-62
2022/06/09 02:07:10;;;;;;;11.70;10.53;;;;;;;15.34;88.88;100684.91;5112497;28;20032;-63
2022/06/09 02:09:37;;;;;;;12.73;11.40;;;;;;;15.38;89.09;100698.75;5112672;28;20031;-62
2022/06/09 02:12:16;;;;;;;13.80;11.40;;;;;;;15.41;90.02;100699.19;5112652;28;20118;-62
2022/06/09 02:14:49;;;;;;;14.57;13.07;;;;;;;15.42;90.32;100700.84;5112691;28;20118;-65
2022/06/09 02:17:16;;;;;;;13.63;11.53;;;;;;;15.44;89.48;100711.38;5112868;28;20108;-66
2022/06/09 02:19:42;;;;;;;16.13;12.10;;;;;;;15.46;89.67;100709.31;5112159;28;20109;-62
2022/06/09 02:22:10;;;;;;;14.97;12.20;;;;;;;15.45;89.70;100696.94;5112503;28;20063;-61
2022/06/09 02:24:36;;;;;;;14.60;12.48;;;;;;;15.48;89.57;100707.28;5112621;28;20467;-62
2022/06/09 02:27:01;;;;;;;14.30;12.33;;;;;;;15.48;89.08;100701.91;5112117;28;20575;-64
2022/06/09 02:29:27;;;;;;;13.70;12.23;;;;;;;15.46;89.15;100691.38;5113255;28;20482;-63
2022/06/09 02:31:53;;;;;;;15.67;12.77;;;;;;;15.52;89.55;100705.84;5116473;28;20085;-61
2022/06/09 02:34:18;;;;;;;15.47;13.83;;;;;;;15.53;89.42;100702.13;5119242;28;20032;-62
2022/06/09 02:36:44;;;;;;;14.30;12.93;;;;;;;15.48;89.42;100697.38;5118091;28;20085;-62
2022/06/09 02:39:10;;;;;;;14.97;12.73;;;;;;;15.56;89.21;100709.78;5112521;28;20486;-62
2022/06/09 02:41:36;;;;;;;17.60;13.53;;;;;;;15.61;89.54;100715.47;5112500;28;20070;-62
2022/06/09 02:44:02;;;;;;;13.73;12.43;;;;;;;15.65;89.44;100722.09;5112139;28;20043;-62
2022/06/09 02:46:27;;;;;;;14.60;13.07;;;;;;;15.61;89.58;100717.28;5112007;28;20047;-61
2022/06/09 02:48:53;;;;;;;15.03;13.40;;;;;;;15.62;89.37;100729.72;5112423;28;20036;-62
2022/06/09 02:51:33;;;;;;;14.97;13.40;;;;;;;15.63;89.44;100726.84;5112120;28;20047;-62
2022/06/09 02:54:03;;;;;;;18.67;13.40;;;;;;;15.66;89.17;100742.53;5112059;28;20035;-62
2022/06/09 02:56:29;;;;;;;17.27;13.47;;;;;;;15.67;89.43;100738.00;5111982;28;20039;-63
2022/06/09 02:58:56;;;;;;;17.80;13.20;;;;;;;15.68;89.29;100732.44;5111876;28;20035;-62
2022/06/09 03:01:23;;;;;;;15.13;13.50;;;;;;;15.70;89.72;100746.50;5111985;28;20031;-62
2022/06/09 03:03:48;;;;;;;13.80;12.40;;;;;;;15.73;89.57;100743.41;5112308;28;20047;-62
2022/06/09 03:06:17;;;;;;;18.35;13.40;;;;;;;15.72;89.21;100741.75;5111955;28;20039;-63
2022/06/09 03:08:42;;;;;;;18.20;15.27;;;;;;;15.47;89.18;100711.81;5111978;28;20407;-64
2022/06/09 03:11:10;;;;;;;16.13;14.47;;;;;;;15.55;88.70;100745.72;5111890;28;20383;-62
2022/06/09 03:13:37;;;;;;;16.88;14.98;;;;;;;15.50;89.62;100758.91;5111721;28;20371;-65
2022/06/09 03:16:04;;;;;;;16.80;14.93;;;;;;;15.43;89.99;100758.84;5111794;28;20454;-62
2022/06/09 03:18:30;;;;;;;19.13;15.53;;;;;;;15.38;90.39;100768.50;5112857;28;20411;-61
2022/06/09 03:20:56;;;;;;;20.53;16.87;;;;;;;15.34;90.49;100769.94;5112089;28;20060;-62
2022/06/09 03:23:22;;;;;;;23.37;18.27;;;;;;;15.37;90.51;100782.97;5112233;28;20063;-62
2022/06/09 03:25:48;;;;;;;19.40;17.00;;;;;;;15.36;90.91;100774.06;5111849;28;20537;-62
2022/06/09 03:28:13;;;;;;;21.30;17.97;;;;;;;15.34;90.62;100769.94;5111690;28;20042;-66
2022/06/09 03:30:39;;;;;;;21.67;19.57;;;;;;;15.37;90.38;100769.53;5112471;28;20398;-62
2022/06/09 03:33:05;;;;;;;26.57;21.07;;;;;;;15.44;90.70;100781.97;5112365;28;20479;-63
2022/06/09 03:35:31;;;;;;;23.60;20.77;;;;;;;15.43;90.44;100785.69;5112456;28;20032;-63
2022/06/09 03:37:57;;;;;;;23.27;20.87;;;;;;;15.44;90.72;100789.22;5111629;28;20031;-61
2022/06/09 03:40:24;;;;;;;27.63;21.73;;;;;;;15.47;90.75;100788.81;5115065;28;20035;-63
2022/06/09 03:42:50;;;;;;;21.40;19.20;;;;;;;15.49;90.14;100795.66;5115235;28;20034;-61
2022/06/09 03:45:16;;;;;;;23.50;19.43;;;;;;;15.57;90.12;100796.53;5115090;28;20062;-62
2022/06/09 03:47:41;;;;;;;19.27;17.37;;;;;;;15.61;90.27;100804.06;5115459;28;20559;-61
2022/06/09 03:50:12;;;;;;;19.47;17.47;;;;;;;15.72;90.15;100797.31;5115506;28;20551;-60
2022/06/09 03:52:38;;;;;;;18.43;16.43;;;;;;;15.77;89.47;100797.53;5115164;28;20065;-64
2022/06/09 03:55:04;;;;;;;17.93;16.00;;;;;;;15.86;89.84;100801.72;5114960;28;20505;-62
2022/06/09 03:57:29;;;;;;;13.77;12.47;;;;;;;15.85;88.66;100793.88;5115183;28;20521;-63
2022/06/09 03:59:55;;;;;;;10.03;9.07;;;;;;;15.80;87.99;100792.63;5115077;28;20510;-63
2022/06/09 04:02:23;;;;;;;11.37;10.27;;;;;;;15.80;88.26;100805.22;5114920;28;20108;-62
2022/06/09 04:04:49;;;;;;;9.52;8.73;;;;;;;15.84;87.91;100803.78;5115639;28;20028;-62
2022/06/09 04:07:41;;;;;;;9.33;8.50;;;;;;;16.04;87.04;100814.69;5115087;28;20142;-64
2022/06/09 04:10:08;;;;;;;8.30;7.50;;;;;;;16.06;86.02;100799.19;5114789;28;20375;-63
2022/06/09 04:12:34;;;;;;;6.00;5.50;;;;;;;16.34;84.64;100810.72;5114653;28;20042;-63
2022/06/09 04:15:01;;;;;;;6.03;5.47;;;;;;;16.94;82.52;100806.44;5114578;28;20035;-62
2022/06/09 04:17:28;;;;;;;6.65;5.80;;;;;;;17.30;81.14;100810.63;5114958;27;20038;-61
2022/06/09 04:19:54;;;;;;;6.40;5.80;;;;;;;17.43;79.56;100815.22;5114946;28;20055;-65
2022/06/09 04:22:21;;;;;;;7.87;5.90;;;;;;;17.22;79.93;100814.34;5114353;28;20035;-61
2022/06/09 04:24:46;;;;;;;6.50;5.90;;;;;;;17.04;80.65;100823.00;5114453;28;20047;-60
2022/06/09 04:27:12;;;;;;;6.40;5.90;;;;;;;16.99;81.20;100820.09;5114352;28;20042;-61
2022/06/09 04:29:37;;;;;;;4.73;4.33;;;;;;;17.11;80.35;100822.22;5114404;28;20122;-62
2022/06/09 04:32:04;;;;;;;5.43;4.93;;;;;;;17.70;78.02;100827.69;5114518;28;20032;-63
2022/06/09 04:34:30;;;;;;;7.13;5.10;;;;;;;17.68;78.44;100823.53;5115342;28;20039;-63
2022/06/09 04:36:55;;;;;;;4.17;3.77;;;;;;;17.51;79.17;100832.00;5114324;28;20039;-60
2022/06/09 04:39:21;;;;;;;4.20;3.90;;;;;;;17.30;79.97;100838.38;5114188;28;20050;-61
2022/06/09 04:41:46;;;;;;;4.00;3.70;;;;;;;16.97;80.30;100832.91;5114444;27;20035;-64
2022/06/09 04:44:12;;;;;;;5.90;5.03;;;;;;;16.82;81.18;100840.34;5114071;28;20035;-62
2022/06/09 04:46:38;;;;;;;5.93;5.43;;;;;;;16.67;81.85;100847.72;5114203;28;20031;-63
2022/06/09 04:49:03;;;;;;;4.17;3.77;;;;;;;16.59;82.37;100843.31;5114041;28;20042;-60
2022/06/09 04:51:29;;;;;;;3.90;3.50;;;;;;;16.47;82.93;100844.88;5114215;28;20123;-62
2022/06/09 04:53:55;;;;;;;4.50;4.20;;;;;;;16.45;83.55;100843.44;5113780;28;20055;-63
2022/06/09 04:56:21;;;;;;;4.60;4.20;;;;;;;16.60;82.66;100841.44;5114073;28;20085;-62
2022/06/09 04:58:51;;;;;;;4.57;4.17;;;;;;;16.57;82.23;100845.38;5113979;28;20044;-62
2022/06/09 05:01:20;;;;;;;5.10;4.70;;;;;;;16.55;82.64;100838.53;5112406;28;20495;-63
2022/06/09 05:03:47;;;;;;;4.03;3.70;;;;;;;16.75;81.18;100854.75;5113981;28;20035;-66
2022/06/09 05:06:13;;;;;;;4.70;4.30;;;;;;;17.06;79.81;100848.88;5114617;27;20134;-64
2022/06/09 05:08:40;;;;;;;5.10;4.60;;;;;;;17.20;78.87;100848.72;5113904;28;20043;-64
2022/06/09 05:11:06;;;;;;;4.90;4.50;;;;;;;17.07;78.70;100851.38;5113644;28;20042;-65
2022/06/09 05:13:32;;;;;;;4.43;4.03;;;;;;;16.94;78.82;100848.66;5112544;28;20062;-66
2022/06/09 05:15:57;;;;;;;4.67;4.27;;;;;;;17.01;78.29;100850.31;5113562;28;20071;-67
2022/06/09 05:18:26;;;;;;;5.47;4.97;;;;;;;17.15;78.50;100858.44;5113168;28;20031;-63
2022/06/09 05:20:55;;;;;;;9.30;5.00;;;;;;;17.38;77.90;100861.59;5113523;28;20059;-64
2022/06/09 05:23:21;;;;;;;5.60;5.10;;;;;;;17.27;77.68;100871.09;5113362;28;20039;-63
2022/06/09 05:25:49;;;;;;;6.33;5.83;;;;;;;17.20;78.04;100866.72;5113118;28;20050;-65
2022/06/09 05:28:15;;;;;;;5.10;4.70;;;;;;;16.97;78.24;100854.44;5112161;28;20166;-62
2022/06/09 05:30:41;;;;;;;7.63;6.50;;;;;;;16.88;79.74;100866.44;5111543;28;20032;-63
2022/06/09 05:33:07;;;;;;;7.10;6.50;;;;;;;16.79;81.01;100861.44;5112282;27;20038;-63
2022/06/09 05:35:33;;;;;;;8.50;7.70;;;;;;;16.65;81.41;100871.25;5112745;28;20386;-64
2022/06/09 05:46:34;;;;;;;9.40;8.30;;;;;;;16.26;82.81;100867.31;5100932;28;20047;-64
2022/06/09 05:48:59;;;;;;;8.63;7.83;;;;;;;16.35;83.19;100863.44;5112890;28;20405;-62
2022/06/09 05:51:25;;;;;;;9.90;8.60;;;;;;;16.54;82.51;100869.13;5113034;28;20027;-63
2022/06/09 05:53:51;;;;;;;10.63;9.07;;;;;;;16.65;81.78;100871.25;5112564;28;20036;-64
2022/06/09 05:56:17;;;;;;;12.50;9.63;;;;;;;16.80;81.26;100869.31;5111473;28;20470;-65
2022/06/09 05:58:43;;;;;;;12.00;8.97;;;;;;;16.95;80.94;100872.66;5112212;28;20027;-64
2022/06/09 06:01:11;;;;;;;12.03;9.13;;;;;;;16.95;79.58;100871.81;5111473;28;20031;-63
2022/06/09 06:03:38;;;;;;;13.70;9.30;;;;;;;16.87;80.22;100866.63;5112587;28;20072;-62
2022/06/09 06:08:48;;;;;;;8.80;7.90;;;;;;;16.96;79.47;100887.75;5112459;28;20066;-64
2022/06/09 06:11:14;;;;;;;7.70;7.00;;;;;;;17.06;79.67;100889.22;5112675;28;20486;-64
2022/06/09 06:13:41;;;;;;;8.60;7.83;;;;;;;16.99;79.63;100889.22;5112700;28;20063;-65
2022/06/09 06:16:07;;;;;;;7.70;7.00;;;;;;;17.01;79.25;100901.44;5112670;28;20031;-63
2022/06/09 06:18:32;;;;;;;9.03;7.80;;;;;;;16.84;79.00;100899.31;5112347;28;20468;-65
2022/06/09 06:20:58;;;;;;;7.93;7.13;;;;;;;16.69;80.07;100899.44;5112795;28;20059;-65
2022/06/09 06:23:27;;;;;;;7.78;7.05;;;;;;;16.61;79.98;100905.78;5112495;28;20051;-65
2022/06/09 06:26:18;;;;;;;10.40;7.20;;;;;;;16.59;80.15;100912.38;5112660;28;20050;-62
2022/06/09 06:28:44;;;;;;;7.03;6.33;;;;;;;16.72;79.89;100909.78;5112291;28;20031;-65
2022/06/09 06:31:10;;;;;;;7.27;6.57;;;;;;;16.95;79.07;100909.50;5112328;28;20027;-63
2022/06/09 06:33:35;;;;;;;8.00;6.40;;;;;;;17.11;78.46;100913.69;5111929;28;20394;-65
2022/06/09 06:36:01;;;;;;;7.93;6.73;;;;;;;17.44;78.48;100903.84;5112826;28;20053;-65
2022/06/09 06:38:26;;;;;;;6.77;6.07;;;;;;;17.68;76.58;100910.56;5112310;28;20406;-63
2022/06/09 06:40:54;;;;;;;6.72;6.13;;;;;;;17.73;75.60;100904.56;5111724;28;20049;-62
2022/06/09 06:43:21;;;;;;;7.10;6.40;;;;;;;17.92;75.47;100904.53;5112833;28;20479;-65
2022/06/09 06:45:46;;;;;;;7.50;6.30;;;;;;;18.21;73.70;100922.19;5111325;28;20044;-64
2022/06/09 06:48:12;;;;;;;9.00;6.00;;;;;;;18.33;73.47;100921.53;5112516;28;20452;-63
2022/06/09 06:50:38;;;;;;;6.75;6.07;;;;;;;18.40;73.95;100930.44;5111645;28;20066;-63
2022/06/09 06:53:04;;;;;;;7.45;6.30;;;;;;;18.48;73.22;100927.50;5113302;28;20031;-67
2022/06/09 06:55:29;;;;;;;7.78;6.97;;;;;;;18.51;73.83;100932.50;5114485;28;20175;-63
2022/06/09 06:57:55;;;;;;;8.32;6.22;;;;;;;18.53;73.26;100933.13;5113301;28;20126;-66
2022/06/09 07:00:23;;;;;;;6.85;6.15;;;;;;;18.52;71.98;100934.16;5112596;28;20483;-64
2022/06/09 07:02:49;;;;;;;8.82;6.30;;;;;;;18.45;72.72;100941.41;5112512;28;20101;-64
2022/06/09 07:05:17;;;;;;;7.00;5.80;;;;;;;18.35;72.63;100938.34;5112642;28;20051;-64
2022/06/09 07:07:42;;;;;;;9.07;5.70;;;;;;;18.30;72.82;100936.28;5112158;28;20122;-63
2022/06/09 07:10:10;;;;;;;8.45;6.53;;;;;;;18.22;72.94;100929.22;5111913;28;20320;-63
2022/06/09 07:12:37;;;;;;;7.70;5.30;;;;;;;18.11;73.76;100931.72;5112974;28;20044;-65
2022/06/09 07:15:04;;;;;;;7.22;5.38;;;;;;;17.94;75.63;100937.53;5115895;28;20177;-64
2022/06/09 07:17:30;;;;;;;13.38;6.63;;;;;;;17.97;76.14;100936.28;5115874;28;20031;-65
2022/06/09 07:19:55;;;;;;;9.60;6.78;;;;;;;18.13;75.50;100943.09;5115553;28;20058;-63
2022/06/09 07:22:21;;;;;;;9.48;8.48;;;;;;;18.46;74.38;100945.78;5116442;28;20462;-62
2022/06/09 07:24:47;;;;;;;8.57;6.13;;;;;;;18.73;73.07;100944.72;5114761;28;20539;-64
2022/06/09 07:27:14;;;;;;;8.95;6.15;;;;;;;18.64;71.92;100954.09;5114531;28;20104;-63
2022/06/09 07:29:41;;;;;;;7.55;5.90;;;;;;;18.70;73.32;100958.63;5115837;28;20112;-64
2022/06/09 07:32:07;;;;;;;7.65;5.93;;;;;;;18.63;72.50;100963.22;5115477;28;20043;-67
2022/06/09 07:34:34;;;;;;;7.38;6.28;;;;;;;18.43;73.26;100962.38;5115882;28;20034;-64
2022/06/09 07:37:00;;;;;;;13.07;7.40;;;;;;;18.19;73.49;100945.78;5116186;28;20039;-65
2022/06/09 07:39:26;;;;;;;10.13;6.78;;;;;;;18.06;74.60;100944.97;5115373;28;20039;-63
2022/06/09 07:41:52;;;;;;;7.78;6.05;;;;;;;18.02;74.66;100946.44;5115375;28;20612;-62
2022/06/09 07:44:18;;;;;;;8.98;7.00;;;;;;;18.02;74.92;100949.97;5115251;28;20056;-63
2022/06/09 07:46:43;;;;;;;7.53;6.55;;;;;;;18.16;74.68;100954.31;5115139;28;20031;-61
2022/06/09 07:49:09;;;;;;;8.13;5.45;;;;;;;18.56;72.88;100962.38;5115408;28;20031;-62
2022/06/09 07:51:35;;;;;;;8.38;5.65;;;;;;;18.86;71.33;100958.19;5115562;28;20496;-65
2022/06/09 07:54:01;;;;;;;5.13;4.57;;;;;;;19.03;70.21;100955.00;5115553;28;20080;-65
2022/06/09 07:56:28;;;;;;;7.30;5.03;;;;;;;19.02;70.72;100962.28;5115057;28;20118;-64
2022/06/09 07:58:53;;;;;;;8.73;5.10;;;;;;;18.98;69.05;100955.66;5115054;28;20058;-67
2022/06/09 08:01:20;;;;;;;5.80;5.20;;;;;;;19.11;69.83;100965.59;5115066;28;20474;-65
2022/06/09 08:03:46;;;;;;;9.07;5.40;;;;;;;19.38;68.13;100967.13;5115813;28;20134;-62
2022/06/09 08:06:12;;;;;;;5.28;4.72;;;;;;;19.61;66.56;100972.00;5115138;28;20031;-60
2022/06/09 08:08:38;;;;;;;4.50;3.88;;;;;;;19.65;66.49;100967.81;5115159;28;20106;-61
2022/06/09 08:11:07;;;;;;;5.43;3.55;;;;;;;19.84;66.46;100981.44;5114763;28;20040;-66
2022/06/09 08:13:33;;;;;;;7.43;3.90;;;;;;;19.62;66.20;100970.94;5114750;28;20379;-66
2022/06/09 08:15:59;;;;;;;8.18;3.15;;;;;;;19.45;64.16;100972.50;5114870;28;20126;-67
2022/06/09 08:18:25;;;;;;;4.82;2.38;;;;;;;19.35;61.96;100978.34;5114808;28;20027;-65
2022/06/09 08:20:51;;;;;;;2.60;2.40;;;;;;;19.16;61.83;100972.00;5114628;28;20059;-64
2022/06/09 08:23:21;;;;;;;5.60;2.85;;;;;;;19.29;62.67;100990.00;5113705;28;20050;-64
2022/06/09 08:25:47;;;;;;;4.50;3.35;;;;;;;19.31;63.07;100979.81;5113946;28;20534;-62
2022/06/09 08:28:18;;;;;;;3.90;3.50;;;;;;;19.29;65.06;100984.59;5113949;28;20037;-63
2022/06/09 08:30:45;;;;;;;3.95;3.08;;;;;;;19.25;64.54;100990.66;5115038;28;20032;-65
2022/06/09 08:33:11;;;;;;;4.20;3.13;;;;;;;18.98;64.18;100985.34;5115015;28;20062;-64
2022/06/09 08:35:37;;;;;;;6.85;4.68;;;;;;;18.79;65.35;100989.75;5114715;28;20123;-70
2022/06/09 08:38:04;;;;;;;9.63;4.10;;;;;;;18.66;66.86;100989.78;5114813;28;20126;-70
2022/06/09 08:41:08;;;;;;;5.78;3.40;;;;;;;18.64;65.56;100991.03;5113922;28;20495;-63
2022/06/09 08:43:54;;;;;;;5.32;3.75;;;;;;;18.51;66.74;100986.47;5114563;28;20039;-65
2022/06/09 08:46:38;;;;;;;4.40;4.00;;;;;;;18.38;67.05;100983.75;5114122;28;20068;-68
2022/06/09 08:49:19;;;;;;;6.00;4.55;;;;;;;18.35;66.84;100997.66;5114352;28;20042;-61
2022/06/09 08:51:49;;;;;;;9.45;4.88;;;;;;;18.29;67.67;100998.50;5114713;28;20088;-61
2022/06/09 08:54:36;;;;;;;10.00;4.90;;;;;;;18.31;66.80;100997.25;5114725;28;20064;-64
2022/06/09 08:57:12;;;;;;;6.87;4.67;;;;;;;18.20;66.69;100997.84;5112977;28;20027;-66
2022/06/09 08:59:40;;;;;;;5.88;4.10;;;;;;;18.15;66.88;101005.72;5114011;28;20491;-63
2022/06/09 09:02:32;;;;;;;5.97;4.78;;;;;;;18.25;67.01;100998.91;5112695;28;20040;-67
2022/06/09 09:05:19;;;;;;;4.82;4.38;;;;;;;18.48;66.61;101001.16;5113888;28;20042;-63
2022/06/09 09:07:48;;;;;;;6.60;4.83;;;;;;;18.52;66.07;101004.28;5114025;28;20035;-66
2022/06/09 09:10:23;;;;;;;5.32;4.72;;;;;;;18.43;66.03;101000.13;5113764;28;20158;-69
2022/06/09 09:12:55;;;;;;;6.57;4.88;;;;;;;18.61;66.23;101015.69;5114192;28;20040;-64
2022/06/09 09:15:38;;;;;;;4.63;4.22;;;;;;;18.78;66.07;101020.44;5113884;28;20116;-64
2022/06/09 09:18:35;;;;;;;9.40;5.18;;;;;;;19.06;65.44;101022.06;5112546;28;20066;-63
2022/06/09 09:21:23;;;;;;;7.32;5.15;;;;;;;19.29;65.19;101017.00;5113623;28;20671;-64
2022/06/09 09:24:24;;;;;;;5.65;4.78;;;;;;;19.28;64.31;101018.03;5113514;28;20062;-62
2022/06/09 09:26:58;;;;;;;7.55;5.82;;;;;;;19.17;65.55;101013.31;5074017;28;20434;-64
2022/06/09 09:29:43;;;;;;;5.35;4.85;;;;;;;19.09;65.43;101005.47;5113418;28;20122;-65
2022/06/09 09:32:13;;;;;;;5.28;4.70;;;;;;;19.02;65.21;100983.88;5113298;28;20036;-63
2022/06/09 09:34:43;;;;;;;4.57;4.18;;;;;;;19.24;65.45;101019.53;5113337;27;20079;-61
2022/06/09 09:37:36;;;;;;;5.90;4.60;;;;;;;19.19;64.23;101000.44;5112349;28;20035;-64
2022/06/09 09:40:23;;;;;;;4.97;4.22;;;;;;;19.26;64.71;101005.81;5107444;28;20040;-66
2022/06/09 09:42:52;;;;;;;6.68;3.88;;;;;;;19.34;64.83;101003.69;5113490;28;20054;-63
2022/06/09 09:45:23;;;;;;;;;;;;;;;19.55;64.13;101012.56;5113804;27;20031;-64
2022/06/09 09:47:57;;;;;;;7.50;4.65;;;;;;;19.64;63.14;101008.56;5113284;28;19915;-64
2022/06/09 09:50:57;;;;;;;6.25;4.97;;;;;;;19.79;61.72;101011.81;5113252;28;20035;-62
2022/06/09 09:53:28;;;;;;;5.55;3.75;;;;;;;19.88;61.20;101024.00;5112828;28;20036;-61
2022/06/09 09:56:00;;;;;;;4.85;3.28;;;;;;;19.85;60.10;101016.34;5112946;28;20093;-63
2022/06/09 09:58:39;;;;;;;6.55;3.95;;;;;;;19.78;61.06;101016.38;5112635;28;20047;-62
2022/06/09 10:01:16;;;;;;;3.85;2.92;;;;;;;19.77;59.94;101009.34;5112610;28;20035;-64
2022/06/09 10:09:40;;;;;;;6.68;3.38;;;;;;;19.90;58.85;101002.16;5113805;28;20107;-61
2022/06/09 10:12:25;;;;;;;6.60;3.10;;;;;;;20.01;58.79;101010.44;5112572;28;20035;-66
2022/06/09 10:15:01;;;;;;;4.60;3.63;;;;;;;20.04;58.90;101010.00;5112556;28;20040;-65
2022/06/09 10:17:36;;;;;;;5.38;4.65;;;;;;;19.93;59.01;101007.13;5112708;28;20035;-64
2022/06/09 10:20:15;;;;;;;4.72;3.75;;;;;;;19.88;60.07;101015.91;5112165;28;20067;-62
2022/06/09 10:23:01;;;;;;;5.18;3.15;;;;;;;19.82;59.58;101027.59;5112345;28;20075;-63
2022/06/09 10:25:38;;;;;;;5.75;3.42;;;;;;;19.87;59.29;101014.25;5113658;28;20083;-62
2022/06/09 10:28:22;;;;;;;3.60;3.30;;;;;;;19.97;58.99;101009.22;5112676;28;20086;-63
2022/06/09 10:31:01;;;;;;;4.80;3.50;;;;;;;20.02;58.36;101022.91;5112596;28;20028;-62
2022/06/09 10:33:36;;;;;;;5.13;3.22;;;;;;;20.18;58.03;101015.28;5112317;28;20032;-61
2022/06/09 10:36:37;;;;;;;4.47;3.95;;;;;;;20.06;57.86;100996.25;5112611;28;20067;-63
2022/06/09 10:39:13;;;;;;;6.22;5.20;;;;;;;20.09;58.27;100991.22;5112214;28;20050;-62
2022/06/09 10:42:03;;;;;;;4.53;3.50;;;;;;;20.15;57.41;101004.91;5112415;28;20035;-62
2022/06/09 10:44:31;;;;;;;6.35;3.50;;;;;;;20.18;58.38;101005.31;5080414;28;20035;-63
2022/06/09 10:55:46;;;;;;;8.27;4.25;;;;;;;20.29;58.77;101009.19;5116792;28;20054;-66
2022/06/09 10:58:18;;;;;;;6.22;3.97;;;;;;;20.38;57.78;101005.97;5116318;28;20045;-65
2022/06/09 11:00:46;;;;;;;4.10;3.47;;;;;;;20.55;57.84;101000.06;5116474;28;20040;-63
2022/06/09 11:03:18;;;;;;;5.35;3.28;;;;;;;20.73;56.99;101014.41;5116329;28;20067;-64
2022/06/09 11:06:04;;;;;;;6.75;4.45;;;;;;;20.87;56.65;101006.19;5116360;27;20035;-62
2022/06/09 11:08:51;;;;;;;4.38;3.03;;;;;;;20.99;55.25;101012.50;5116447;28;20036;-64
2022/06/09 11:11:38;;;;;;;5.18;3.63;;;;;;;20.92;55.96;101017.16;5116728;28;20035;-62
2022/06/09 11:14:21;;;;;;;7.75;4.10;;;;;;;20.77;57.24;101016.69;5116153;28;20063;-62
2022/06/09 11:17:39;;;;;;;5.45;3.63;;;;;;;20.83;57.97;101011.22;5116066;28;20135;-66
2022/06/09 11:20:25;;;;;;;5.32;3.45;;;;;;;21.20;57.21;101014.75;5052458;28;20065;-62
2022/06/09 11:22:57;;;;;;;3.92;3.38;;;;;;;21.41;56.32;101015.38;5053000;28;20127;-64
2022/06/09 11:26:17;;;;;;;9.63;4.88;;;;;;;21.56;55.59;101013.09;5094158;28;20127;-62
2022/06/09 11:29:24;;;;;;;8.70;4.10;;;;;;;21.75;55.98;101014.72;5052995;28;20044;-63
2022/06/09 11:32:28;;;;;;;10.43;4.20;;;;;;;21.77;55.81;101019.91;5043229;28;20048;-62
2022/06/09 11:35:05;;;;;;;5.60;5.03;;;;;;;21.50;55.56;101008.59;5115677;28;20131;-64
2022/06/09 11:38:05;;;;;;;5.88;4.57;;;;;;;21.23;56.40;101013.47;5115623;28;20036;-62
2022/06/09 11:40:53;;;;;;;7.10;4.80;;;;;;;20.94;57.90;101020.47;5115557;28;20142;-66
2022/06/09 11:43:30;;;;;;;;;;;;;;;20.75;57.83;101024.19;5115944;28;20066;-66
2022/06/09 11:46:03;;;;;;;8.80;5.20;;;;;;;20.54;58.53;101018.16;5115332;28;20390;-66
2022/06/09 11:48:37;;;;;;;7.28;5.28;;;;;;;20.51;59.09;101010.47;5115347;28;20050;-65
2022/06/09 11:51:04;;;;;;;9.85;5.95;;;;;;;20.47;59.35;101025.47;5115404;28;20028;-63
2022/06/09 11:53:35;;;;;;;7.75;5.72;;;;;;;20.41;59.93;101024.50;5115388;28;20240;-65
2022/06/09 11:56:33;;;;;;;9.65;5.65;;;;;;;20.41;59.58;101031.78;5115407;28;20038;-64
2022/06/09 11:59:00;;;;;;;9.73;5.18;;;;;;;20.44;59.65;101019.69;5114452;28;20066;-64
2022/06/09 12:01:31;;;;;;;6.65;5.15;;;;;;;20.58;60.14;101021.25;5114942;28;20525;-64
2022/06/09 12:04:21;;;;;;;11.73;6.25;;;;;;;20.52;59.77;101022.09;5114975;28;20039;-65
2022/06/09 12:07:17;;;;;;;7.60;6.80;;;;;;;20.48;60.63;101008.19;5114869;28;20042;-65
2022/06/09 12:10:18;;;;;;;6.78;6.07;;;;;;;20.52;61.13;101014.00;5115162;28;20160;-67